createdAt,value
2017-05-05T00:00:24.255Z,1014.33
2017-05-05T00:01:04.934Z,1014.29
2017-05-05T00:01:45.623Z,1014.3
2017-05-05T00:02:26.273Z,1014.27
2017-05-05T00:03:06.843Z,1014.26
2017-05-05T00:03:47.431Z,1014.27
2017-05-05T00:04:28.042Z,1014.25
2017-05-05T00:05:08.684Z,1014.27
2017-05-05T00:05:49.245Z,1014.26
2017-05-05T00:06:29.836Z,1014.25
2017-05-05T00:07:10.449Z,1014.24
2017-05-05T00:07:51.095Z,1014.24
2017-05-05T00:08:31.656Z,1014.26
2017-05-05T00:09:12.256Z,1014.2
2017-05-05T00:09:52.874Z,1014.23
2017-05-05T00:10:33.513Z,1014.24
2017-05-05T00:11:14.074Z,1014.22
2017-05-05T00:11:54.752Z,1014.24
2017-05-05T00:12:35.356Z,1014.18
2017-05-05T00:13:15.919Z,1014.21
2017-05-05T00:13:57.583Z,1014.24
2017-05-05T00:14:38.240Z,1014.2
2017-05-05T00:15:18.807Z,1014.23
2017-05-05T00:15:59.541Z,1014.22
2017-05-05T00:16:40.604Z,1014.25
2017-05-05T00:17:21.175Z,1014.21
2017-05-05T00:18:01.775Z,1014.23
2017-05-05T00:18:42.370Z,1014.22
2017-05-05T00:19:23.018Z,1014.21
2017-05-05T00:20:03.616Z,1014.23
2017-05-05T00:20:44.340Z,1014.18
2017-05-05T00:21:24.975Z,1014.19
2017-05-05T00:22:05.623Z,1014.24
2017-05-05T00:22:46.278Z,1014.21
2017-05-05T00:23:26.933Z,1014.22
2017-05-05T00:24:07.604Z,1014.2
2017-05-05T00:24:48.337Z,1014.19
2017-05-05T00:25:28.909Z,1014.2
2017-05-05T00:26:09.559Z,1014.16
2017-05-05T00:26:50.196Z,1014.17
2017-05-05T00:27:30.778Z,1014.15
2017-05-05T00:28:11.434Z,1014.16
2017-05-05T00:28:52.062Z,1014.19
2017-05-05T00:29:32.683Z,1014.13
2017-05-05T00:30:13.369Z,1014.17
2017-05-05T00:30:54.007Z,1014.13
2017-05-05T00:31:34.665Z,1014.18
2017-05-05T00:32:15.323Z,1014.15
2017-05-05T00:32:55.969Z,1014.15
2017-05-05T00:33:37.662Z,1014.13
2017-05-05T00:34:18.295Z,1014.14
2017-05-05T00:34:58.880Z,1014.12
2017-05-05T00:35:39.553Z,1014.11
2017-05-05T00:36:20.160Z,1014.16
2017-05-05T00:37:01.220Z,1014.08
2017-05-05T00:37:41.787Z,1014.1
2017-05-05T00:38:22.408Z,1014.1
2017-05-05T00:39:03.069Z,1014.06
2017-05-05T00:39:45.058Z,1014.07
2017-05-05T00:40:25.629Z,1014.1
2017-05-05T00:41:06.204Z,1014.08
2017-05-05T00:41:46.822Z,1014.09
2017-05-05T00:42:27.465Z,1014.09
2017-05-05T00:43:08.034Z,1014.09
2017-05-05T00:43:48.653Z,1014.09
2017-05-05T00:44:29.329Z,1014.11
2017-05-05T00:45:09.974Z,1014.1
2017-05-05T00:45:51.040Z,1014.07
2017-05-05T00:46:31.702Z,1014.12
2017-05-05T00:47:12.340Z,1014.06
2017-05-05T00:47:54.025Z,1014.06
2017-05-05T00:48:34.672Z,1014.04
2017-05-05T00:49:15.329Z,1014.07
2017-05-05T00:49:55.982Z,1014.08
2017-05-05T00:50:36.633Z,1014.05
2017-05-05T00:51:17.282Z,1014.07
2017-05-05T00:51:57.943Z,1014.06
2017-05-05T00:52:39.516Z,1014.02
2017-05-05T00:53:20.273Z,1014.02
2017-05-05T00:54:01.326Z,1014.04
2017-05-05T00:54:41.987Z,1013.98
2017-05-05T00:55:22.639Z,1014.03
2017-05-05T00:56:03.295Z,1014.04
2017-05-05T00:56:43.952Z,1013.99
2017-05-05T00:57:24.600Z,1014.01
2017-05-05T00:58:05.252Z,1014.01
2017-05-05T00:58:45.907Z,1014
2017-05-05T00:59:26.557Z,1013.99
2017-05-05T01:00:07.208Z,1013.98
2017-05-05T01:00:47.862Z,1013.97
2017-05-05T01:01:28.517Z,1013.99
2017-05-05T01:02:09.172Z,1013.99
2017-05-05T01:02:49.819Z,1013.98
2017-05-05T01:03:30.471Z,1013.97
2017-05-05T01:04:11.129Z,1013.99
2017-05-05T01:04:51.779Z,1013.97
2017-05-05T01:05:32.439Z,1014.01
2017-05-05T01:06:13.085Z,1014.01
2017-05-05T01:06:53.738Z,1013.98
2017-05-05T01:07:34.392Z,1013.97
2017-05-05T01:08:15.046Z,1013.97
2017-05-05T01:08:55.698Z,1013.98
2017-05-05T01:09:36.353Z,1013.99
2017-05-05T01:10:16.911Z,1013.99
2017-05-05T01:10:57.557Z,1013.95
2017-05-05T01:11:38.204Z,1013.97
2017-05-05T01:12:18.858Z,1013.95
2017-05-05T01:12:59.445Z,1013.96
2017-05-05T01:13:40.042Z,1013.96
2017-05-05T01:14:20.619Z,1013.94
2017-05-05T01:15:01.268Z,1013.95
2017-05-05T01:15:41.838Z,1013.94
2017-05-05T01:16:22.419Z,1013.93
2017-05-05T01:17:04.050Z,1013.98
2017-05-05T01:17:45.724Z,1013.93
2017-05-05T01:18:26.281Z,1013.98
2017-05-05T01:19:06.893Z,1013.97
2017-05-05T01:19:47.471Z,1013.94
2017-05-05T01:20:28.140Z,1013.96
2017-05-05T01:21:08.708Z,1013.97
2017-05-05T01:21:49.383Z,1013.93
2017-05-05T01:22:29.995Z,1013.95
2017-05-05T01:23:10.640Z,1013.99
2017-05-05T01:23:51.220Z,1013.99
2017-05-05T01:24:31.803Z,1013.99
2017-05-05T01:25:12.389Z,1013.97
2017-05-05T01:25:55.398Z,1013.99
2017-05-05T01:26:35.977Z,1013.97
2017-05-05T01:27:17.572Z,1013.95
2017-05-05T01:27:58.796Z,1013.97
2017-05-05T01:28:39.479Z,1013.96
2017-05-05T01:29:20.067Z,1013.98
2017-05-05T01:30:00.703Z,1013.95
2017-05-05T01:30:41.306Z,1013.97
2017-05-05T01:31:21.960Z,1013.96
2017-05-05T01:32:02.608Z,1013.94
2017-05-05T01:32:43.267Z,1013.96
2017-05-05T01:33:23.914Z,1013.95
2017-05-05T01:34:04.567Z,1013.96
2017-05-05T01:34:45.225Z,1013.94
2017-05-05T01:35:25.791Z,1013.93
2017-05-05T01:36:06.369Z,1013.94
2017-05-05T01:36:46.972Z,1013.95
2017-05-05T01:37:27.627Z,1013.95
2017-05-05T01:38:08.217Z,1013.93
2017-05-05T01:38:48.867Z,1013.98
2017-05-05T01:39:29.487Z,1013.98
2017-05-05T01:40:10.140Z,1013.99
2017-05-05T01:40:50.816Z,1013.94
2017-05-05T01:41:31.448Z,1013.98
2017-05-05T01:42:12.204Z,1013.94
2017-05-05T01:42:53.796Z,1013.95
2017-05-05T01:43:34.435Z,1013.99
2017-05-05T01:44:15.083Z,1013.98
2017-05-05T01:44:55.738Z,1013.96
2017-05-05T01:45:36.385Z,1013.94
2017-05-05T01:46:17.042Z,1013.95
2017-05-05T01:46:57.728Z,1013.99
2017-05-05T01:47:38.376Z,1013.95
2017-05-05T01:48:19.006Z,1013.95
2017-05-05T01:48:59.656Z,1013.94
2017-05-05T01:49:40.302Z,1013.95
2017-05-05T01:50:20.958Z,1013.93
2017-05-05T01:51:02.739Z,1013.91
2017-05-05T01:51:43.401Z,1013.9
2017-05-05T01:52:25.991Z,1013.9
2017-05-05T01:53:07.671Z,1013.95
2017-05-05T01:53:48.326Z,1013.91
2017-05-05T01:54:29.384Z,1013.91
2017-05-05T01:55:10.041Z,1013.92
2017-05-05T01:55:50.618Z,1013.93
2017-05-05T01:56:31.293Z,1013.94
2017-05-05T01:57:11.899Z,1013.94
2017-05-05T01:57:52.545Z,1013.91
2017-05-05T01:58:33.101Z,1013.9
2017-05-05T01:59:13.718Z,1013.9
2017-05-05T01:59:54.407Z,1013.93
2017-05-05T02:00:35.052Z,1013.89
2017-05-05T02:01:15.708Z,1013.84
2017-05-05T02:01:56.357Z,1013.85
2017-05-05T02:02:37.018Z,1013.81
2017-05-05T02:03:17.669Z,1013.86
2017-05-05T02:03:58.320Z,1013.85
2017-05-05T02:04:39.989Z,1013.87
2017-05-05T02:05:20.656Z,1013.83
2017-05-05T02:06:01.210Z,1013.83
2017-05-05T02:06:42.826Z,1013.8
2017-05-05T02:07:24.451Z,1013.8
2017-05-05T02:08:05.106Z,1013.8
2017-05-05T02:08:45.679Z,1013.79
2017-05-05T02:09:26.257Z,1013.82
2017-05-05T02:10:06.863Z,1013.83
2017-05-05T02:10:47.509Z,1013.8
2017-05-05T02:11:28.165Z,1013.84
2017-05-05T02:12:08.820Z,1013.8
2017-05-05T02:12:49.474Z,1013.79
2017-05-05T02:13:30.138Z,1013.83
2017-05-05T02:14:10.772Z,1013.84
2017-05-05T02:14:51.424Z,1013.82
2017-05-05T02:15:31.981Z,1013.79
2017-05-05T02:16:12.594Z,1013.84
2017-05-05T02:16:53.186Z,1013.84
2017-05-05T02:17:33.833Z,1013.86
2017-05-05T02:18:14.392Z,1013.89
2017-05-05T02:18:54.990Z,1013.89
2017-05-05T02:19:35.588Z,1013.82
2017-05-05T02:20:16.243Z,1013.89
2017-05-05T02:20:56.892Z,1013.86
2017-05-05T02:21:37.549Z,1013.85
2017-05-05T02:22:18.201Z,1013.85
2017-05-05T02:22:58.853Z,1013.89
2017-05-05T02:23:39.510Z,1013.86
2017-05-05T02:24:20.160Z,1013.87
2017-05-05T02:25:00.814Z,1013.83
2017-05-05T02:25:41.482Z,1013.86
2017-05-05T02:26:22.123Z,1013.88
2017-05-05T02:27:02.776Z,1013.87
2017-05-05T02:27:43.428Z,1013.87
2017-05-05T02:28:24.080Z,1013.88
2017-05-05T02:29:04.732Z,1013.87
2017-05-05T02:29:45.392Z,1013.88
2017-05-05T02:30:25.943Z,1013.86
2017-05-05T02:31:06.550Z,1013.86
2017-05-05T02:31:47.123Z,1013.93
2017-05-05T02:32:27.794Z,1013.93
2017-05-05T02:33:08.365Z,1013.93
2017-05-05T02:33:49.361Z,1013.92
2017-05-05T02:34:29.958Z,1013.89
2017-05-05T02:35:11.637Z,1013.89
2017-05-05T02:35:52.188Z,1013.86
2017-05-05T02:36:33.835Z,1013.87
2017-05-05T02:37:15.461Z,1013.9
2017-05-05T02:37:56.092Z,1013.9
2017-05-05T02:38:36.660Z,1013.89
2017-05-05T02:39:17.244Z,1013.93
2017-05-05T02:39:57.842Z,1013.91
2017-05-05T02:40:38.498Z,1013.97
2017-05-05T02:41:19.155Z,1013.92
2017-05-05T02:41:59.802Z,1013.97
2017-05-05T02:42:40.461Z,1013.95
2017-05-05T02:43:21.111Z,1013.97
2017-05-05T02:44:02.784Z,1013.95
2017-05-05T02:44:43.438Z,1013.95
2017-05-05T02:45:24.093Z,1013.95
2017-05-05T02:46:04.732Z,1013.96
2017-05-05T02:46:45.361Z,1013.96
2017-05-05T02:47:25.978Z,1013.96
2017-05-05T02:48:06.616Z,1013.99
2017-05-05T02:48:47.178Z,1013.97
2017-05-05T02:49:27.862Z,1013.94
2017-05-05T02:50:08.454Z,1013.96
2017-05-05T02:50:49.007Z,1013.96
2017-05-05T02:51:29.662Z,1013.96
2017-05-05T02:52:11.341Z,1013.95
2017-05-05T02:52:51.986Z,1013.93
2017-05-05T02:53:32.639Z,1013.93
2017-05-05T02:54:13.298Z,1013.9
2017-05-05T02:54:53.957Z,1013.93
2017-05-05T02:55:34.597Z,1013.91
2017-05-05T02:56:15.251Z,1013.88
2017-05-05T02:56:55.912Z,1013.89
2017-05-05T02:57:36.561Z,1013.92
2017-05-05T02:58:17.219Z,1013.93
2017-05-05T02:58:57.861Z,1013.91
2017-05-05T02:59:38.516Z,1013.89
2017-05-05T03:00:19.169Z,1013.92
2017-05-05T03:01:00.856Z,1013.89
2017-05-05T03:01:41.508Z,1013.91
2017-05-05T03:02:22.154Z,1013.94
2017-05-05T03:03:02.808Z,1013.94
2017-05-05T03:03:43.453Z,1013.92
2017-05-05T03:04:24.052Z,1013.9
2017-05-05T03:05:04.674Z,1013.95
2017-05-05T03:05:45.319Z,1013.89
2017-05-05T03:06:25.972Z,1013.92
2017-05-05T03:07:06.621Z,1013.92
2017-05-05T03:07:47.280Z,1013.9
2017-05-05T03:08:27.925Z,1013.94
2017-05-05T03:09:08.590Z,1013.9
2017-05-05T03:09:49.231Z,1013.92
2017-05-05T03:10:29.896Z,1013.94
2017-05-05T03:11:10.455Z,1013.93
2017-05-05T03:11:51.061Z,1013.92
2017-05-05T03:12:31.739Z,1013.94
2017-05-05T03:13:12.405Z,1013.92
2017-05-05T03:13:52.957Z,1013.92
2017-05-05T03:14:33.552Z,1013.93
2017-05-05T03:15:14.162Z,1013.97
2017-05-05T03:15:54.805Z,1013.93
2017-05-05T03:16:35.372Z,1013.98
2017-05-05T03:17:15.970Z,1013.93
2017-05-05T03:17:56.570Z,1013.93
2017-05-05T03:18:37.210Z,1013.95
2017-05-05T03:19:17.784Z,1013.97
2017-05-05T03:19:58.485Z,1013.95
2017-05-05T03:20:39.099Z,1013.94
2017-05-05T03:21:19.729Z,1013.96
2017-05-05T03:22:00.287Z,1013.94
2017-05-05T03:22:40.925Z,1013.96
2017-05-05T03:23:21.991Z,1013.92
2017-05-05T03:24:02.555Z,1013.91
2017-05-05T03:24:43.192Z,1013.98
2017-05-05T03:25:23.844Z,1013.94
2017-05-05T03:26:04.907Z,1013.92
2017-05-05T03:26:45.562Z,1013.93
2017-05-05T03:27:26.214Z,1013.93
2017-05-05T03:28:06.867Z,1013.9
2017-05-05T03:28:47.522Z,1013.91
2017-05-05T03:29:28.177Z,1013.92
2017-05-05T03:30:08.826Z,1013.89
2017-05-05T03:30:49.394Z,1013.91
2017-05-05T03:31:30.086Z,1013.93
2017-05-05T03:32:10.690Z,1013.92
2017-05-05T03:32:51.338Z,1013.89
2017-05-05T03:33:31.907Z,1013.88
2017-05-05T03:34:12.500Z,1013.91
2017-05-05T03:34:53.093Z,1013.89
2017-05-05T03:35:33.739Z,1013.88
2017-05-05T03:36:14.313Z,1013.87
2017-05-05T03:36:54.903Z,1013.87
2017-05-05T03:37:35.490Z,1013.87
2017-05-05T03:38:16.148Z,1013.88
2017-05-05T03:38:56.716Z,1013.86
2017-05-05T03:39:37.304Z,1013.88
2017-05-05T03:40:17.903Z,1013.88
2017-05-05T03:40:58.477Z,1013.91
2017-05-05T03:41:39.531Z,1013.88
2017-05-05T03:42:20.171Z,1013.89
2017-05-05T03:43:01.547Z,1013.88
2017-05-05T03:43:42.190Z,1013.87
2017-05-05T03:44:22.842Z,1013.9
2017-05-05T03:45:03.495Z,1013.87
2017-05-05T03:45:44.152Z,1013.91
2017-05-05T03:46:24.802Z,1013.91
2017-05-05T03:47:05.465Z,1013.88
2017-05-05T03:47:46.109Z,1013.87
2017-05-05T03:48:26.763Z,1013.86
2017-05-05T03:49:07.413Z,1013.9
2017-05-05T03:49:48.068Z,1013.9
2017-05-05T03:50:28.722Z,1013.89
2017-05-05T03:51:09.377Z,1013.89
2017-05-05T03:51:50.025Z,1013.91
2017-05-05T03:52:30.686Z,1013.89
2017-05-05T03:53:11.745Z,1013.91
2017-05-05T03:53:52.394Z,1013.9
2017-05-05T03:54:33.050Z,1013.89
2017-05-05T03:55:13.720Z,1013.92
2017-05-05T03:55:54.289Z,1013.92
2017-05-05T03:56:34.969Z,1013.94
2017-05-05T03:57:15.972Z,1013.9
2017-05-05T03:57:56.620Z,1013.94
2017-05-05T03:58:37.202Z,1013.93
2017-05-05T03:59:17.776Z,1013.97
2017-05-05T03:59:58.381Z,1013.97
2017-05-05T04:00:39.028Z,1013.92
2017-05-05T04:01:19.591Z,1013.92
2017-05-05T04:02:00.195Z,1013.94
2017-05-05T04:02:40.787Z,1013.95
2017-05-05T04:03:22.517Z,1013.92
2017-05-05T04:04:03.419Z,1013.92
2017-05-05T04:04:44.031Z,1013.93
2017-05-05T04:05:24.628Z,1013.94
2017-05-05T04:06:06.512Z,1013.91
2017-05-05T04:06:47.088Z,1013.93
2017-05-05T04:07:27.708Z,1013.94
2017-05-05T04:08:08.369Z,1013.94
2017-05-05T04:08:48.953Z,1013.94
2017-05-05T04:09:29.570Z,1013.96
2017-05-05T04:10:10.222Z,1013.96
2017-05-05T04:10:50.812Z,1013.91
2017-05-05T04:11:31.443Z,1013.95
2017-05-05T04:12:12.078Z,1013.96
2017-05-05T04:12:53.138Z,1013.98
2017-05-05T04:13:33.802Z,1013.95
2017-05-05T04:14:14.464Z,1013.94
2017-05-05T04:14:55.100Z,1013.98
2017-05-05T04:15:35.788Z,1013.97
2017-05-05T04:16:16.409Z,1014
2017-05-05T04:16:56.984Z,1013.97
2017-05-05T04:17:37.662Z,1013.96
2017-05-05T04:18:18.258Z,1013.98
2017-05-05T04:18:58.922Z,1013.99
2017-05-05T04:19:39.500Z,1013.97
2017-05-05T04:20:20.170Z,1013.95
2017-05-05T04:21:00.764Z,1013.98
2017-05-05T04:21:41.426Z,1013.94
2017-05-05T04:22:22.004Z,1013.97
2017-05-05T04:23:02.577Z,1013.95
2017-05-05T04:23:43.183Z,1013.94
2017-05-05T04:24:23.831Z,1013.96
2017-05-05T04:25:04.419Z,1013.95
2017-05-05T04:25:45.091Z,1013.97
2017-05-05T04:26:25.682Z,1013.96
2017-05-05T04:27:06.338Z,1013.93
2017-05-05T04:27:46.993Z,1013.91
2017-05-05T04:28:27.637Z,1013.93
2017-05-05T04:29:08.295Z,1013.92
2017-05-05T04:29:48.964Z,1013.94
2017-05-05T04:30:29.607Z,1013.95
2017-05-05T04:31:10.258Z,1013.92
2017-05-05T04:31:50.914Z,1013.89
2017-05-05T04:32:31.563Z,1013.88
2017-05-05T04:33:12.220Z,1013.89
2017-05-05T04:33:52.880Z,1013.9
2017-05-05T04:34:33.516Z,1013.86
2017-05-05T04:35:14.175Z,1013.9
2017-05-05T04:35:54.833Z,1013.87
2017-05-05T04:36:35.416Z,1013.85
2017-05-05T04:37:16.089Z,1013.87
2017-05-05T04:37:56.680Z,1013.89
2017-05-05T04:38:37.337Z,1013.88
2017-05-05T04:39:17.920Z,1013.87
2017-05-05T04:39:58.524Z,1013.89
2017-05-05T04:40:39.218Z,1013.89
2017-05-05T04:41:19.846Z,1013.9
2017-05-05T04:42:00.504Z,1013.86
2017-05-05T04:42:41.154Z,1013.92
2017-05-05T04:43:21.803Z,1013.89
2017-05-05T04:44:02.464Z,1013.91
2017-05-05T04:44:43.113Z,1013.93
2017-05-05T04:45:23.768Z,1013.9
2017-05-05T04:46:04.417Z,1013.92
2017-05-05T04:46:45.080Z,1013.88
2017-05-05T04:47:25.730Z,1013.93
2017-05-05T04:48:06.382Z,1013.93
2017-05-05T04:48:47.037Z,1013.92
2017-05-05T04:49:27.687Z,1013.91
2017-05-05T04:50:08.341Z,1013.94
2017-05-05T04:50:48.994Z,1013.94
2017-05-05T04:51:29.649Z,1013.93
2017-05-05T04:52:10.301Z,1013.94
2017-05-05T04:52:50.954Z,1013.96
2017-05-05T04:53:31.604Z,1013.97
2017-05-05T04:54:12.260Z,1013.98
2017-05-05T04:54:52.912Z,1013.99
2017-05-05T04:55:33.560Z,1014.02
2017-05-05T04:56:14.131Z,1014.04
2017-05-05T04:56:55.205Z,1014.03
2017-05-05T04:57:35.829Z,1014.06
2017-05-05T04:58:16.499Z,1014.08
2017-05-05T04:58:57.101Z,1014.08
2017-05-05T04:59:37.715Z,1014.11
2017-05-05T05:00:18.344Z,1014.12
2017-05-05T05:00:58.985Z,1014.11
2017-05-05T05:01:39.591Z,1014.13
2017-05-05T05:02:20.245Z,1014.1
2017-05-05T05:03:00.860Z,1014.14
2017-05-05T05:03:41.494Z,1014.12
2017-05-05T05:04:22.079Z,1014.12
2017-05-05T05:05:02.774Z,1014.11
2017-05-05T05:05:43.352Z,1014.12
2017-05-05T05:06:24.005Z,1014.14
2017-05-05T05:07:04.702Z,1014.16
2017-05-05T05:07:45.313Z,1014.15
2017-05-05T05:08:25.991Z,1014.16
2017-05-05T05:09:06.619Z,1014.13
2017-05-05T05:09:47.273Z,1014.13
2017-05-05T05:10:27.928Z,1014.13
2017-05-05T05:11:08.580Z,1014.15
2017-05-05T05:11:49.153Z,1014.13
2017-05-05T05:12:29.869Z,1014.13
2017-05-05T05:13:10.541Z,1014.12
2017-05-05T05:13:51.196Z,1014.14
2017-05-05T05:14:31.774Z,1014.17
2017-05-05T05:15:12.470Z,1014.17
2017-05-05T05:15:53.168Z,1014.14
2017-05-05T05:16:33.812Z,1014.19
2017-05-05T05:17:14.470Z,1014.19
2017-05-05T05:17:56.245Z,1014.18
2017-05-05T05:18:36.904Z,1014.22
2017-05-05T05:19:17.544Z,1014.21
2017-05-05T05:19:58.210Z,1014.22
2017-05-05T05:20:38.860Z,1014.19
2017-05-05T05:21:19.499Z,1014.21
2017-05-05T05:22:00.069Z,1014.24
2017-05-05T05:22:40.710Z,1014.22
2017-05-05T05:23:21.360Z,1014.24
2017-05-05T05:24:01.939Z,1014.23
2017-05-05T05:24:42.574Z,1014.29
2017-05-05T05:25:23.213Z,1014.27
2017-05-05T05:26:03.782Z,1014.23
2017-05-05T05:26:44.424Z,1014.27
2017-05-05T05:27:25.065Z,1014.29
2017-05-05T05:28:05.731Z,1014.29
2017-05-05T05:28:46.387Z,1014.28
2017-05-05T05:29:27.043Z,1014.31
2017-05-05T05:30:07.693Z,1014.28
2017-05-05T05:30:48.346Z,1014.31
2017-05-05T05:31:28.991Z,1014.25
2017-05-05T05:32:09.549Z,1014.28
2017-05-05T05:32:50.147Z,1014.36
2017-05-05T05:33:30.731Z,1014.31
2017-05-05T05:34:11.409Z,1014.33
2017-05-05T05:34:52.007Z,1014.31
2017-05-05T05:35:32.657Z,1014.31
2017-05-05T05:36:13.260Z,1014.31
2017-05-05T05:36:53.833Z,1014.34
2017-05-05T05:37:34.480Z,1014.27
2017-05-05T05:38:15.116Z,1014.3
2017-05-05T05:38:55.694Z,1014.34
2017-05-05T05:39:36.422Z,1014.36
2017-05-05T05:40:17.194Z,1014.37
2017-05-05T05:40:57.796Z,1014.36
2017-05-05T05:41:38.484Z,1014.33
2017-05-05T05:42:19.130Z,1014.31
2017-05-05T05:42:59.792Z,1014.32
2017-05-05T05:43:40.442Z,1014.33
2017-05-05T05:44:21.090Z,1014.34
2017-05-05T05:45:01.746Z,1014.36
2017-05-05T05:45:42.398Z,1014.29
2017-05-05T05:46:23.052Z,1014.33
2017-05-05T05:47:03.703Z,1014.32
2017-05-05T05:47:44.356Z,1014.31
2017-05-05T05:48:25.010Z,1014.3
2017-05-05T05:49:05.667Z,1014.33
2017-05-05T05:49:46.318Z,1014.3
2017-05-05T05:50:26.968Z,1014.32
2017-05-05T05:51:07.616Z,1014.32
2017-05-05T05:51:48.290Z,1014.32
2017-05-05T05:52:28.935Z,1014.29
2017-05-05T05:53:09.580Z,1014.33
2017-05-05T05:53:50.235Z,1014.33
2017-05-05T05:54:30.887Z,1014.35
2017-05-05T05:55:11.535Z,1014.35
2017-05-05T05:55:52.187Z,1014.36
2017-05-05T05:56:32.844Z,1014.35
2017-05-05T05:57:14.938Z,1014.44
2017-05-05T05:57:55.582Z,1014.4
2017-05-05T05:58:36.237Z,1014.4
2017-05-05T05:59:16.902Z,1014.39
2017-05-05T05:59:57.540Z,1014.43
2017-05-05T06:00:38.196Z,1014.41
2017-05-05T06:01:19.259Z,1014.42
2017-05-05T06:01:59.910Z,1014.44
2017-05-05T06:02:40.568Z,1014.43
2017-05-05T06:03:21.217Z,1014.47
2017-05-05T06:04:01.871Z,1014.45
2017-05-05T06:04:43.551Z,1014.45
2017-05-05T06:05:25.241Z,1014.47
2017-05-05T06:06:05.893Z,1014.5
2017-05-05T06:06:47.561Z,1014.52
2017-05-05T06:07:28.213Z,1014.47
2017-05-05T06:08:08.865Z,1014.51
2017-05-05T06:08:49.615Z,1014.52
2017-05-05T06:09:30.275Z,1014.5
2017-05-05T06:10:10.924Z,1014.53
2017-05-05T06:10:51.574Z,1014.53
2017-05-05T06:11:32.229Z,1014.49
2017-05-05T06:12:12.982Z,1014.53
2017-05-05T06:12:53.635Z,1014.53
2017-05-05T06:13:34.292Z,1014.54
2017-05-05T06:14:14.941Z,1014.53
2017-05-05T06:14:55.599Z,1014.54
2017-05-05T06:15:36.252Z,1014.54
2017-05-05T06:16:16.900Z,1014.54
2017-05-05T06:16:57.557Z,1014.57
2017-05-05T06:17:38.217Z,1014.56
2017-05-05T06:18:18.860Z,1014.54
2017-05-05T06:18:59.614Z,1014.56
2017-05-05T06:19:40.276Z,1014.57
2017-05-05T06:20:20.919Z,1014.57
2017-05-05T06:21:01.579Z,1014.55
2017-05-05T06:21:42.227Z,1014.55
2017-05-05T06:22:22.882Z,1014.59
2017-05-05T06:23:03.533Z,1014.57
2017-05-05T06:23:44.190Z,1014.58
2017-05-05T06:24:24.950Z,1014.59
2017-05-05T06:25:05.598Z,1014.56
2017-05-05T06:25:47.279Z,1014.6
2017-05-05T06:26:27.931Z,1014.59
2017-05-05T06:27:08.576Z,1014.58
2017-05-05T06:27:49.332Z,1014.61
2017-05-05T06:28:30.084Z,1014.58
2017-05-05T06:29:11.047Z,1014.58
2017-05-05T06:29:51.704Z,1014.58
2017-05-05T06:30:32.366Z,1014.6
2017-05-05T06:31:13.108Z,1014.61
2017-05-05T06:31:53.767Z,1014.62
2017-05-05T06:32:34.411Z,1014.57
2017-05-05T06:33:15.069Z,1014.59
2017-05-05T06:33:55.722Z,1014.63
2017-05-05T06:34:36.473Z,1014.6
2017-05-05T06:35:17.125Z,1014.6
2017-05-05T06:35:57.880Z,1014.6
2017-05-05T06:36:38.466Z,1014.62
2017-05-05T06:37:19.153Z,1014.57
2017-05-05T06:37:59.841Z,1014.62
2017-05-05T06:38:41.519Z,1014.61
2017-05-05T06:39:22.089Z,1014.64
2017-05-05T06:40:02.784Z,1014.63
2017-05-05T06:40:43.475Z,1014.67
2017-05-05T06:41:25.157Z,1014.62
2017-05-05T06:42:05.818Z,1014.64
2017-05-05T06:42:46.482Z,1014.66
2017-05-05T06:43:27.236Z,1014.63
2017-05-05T06:44:07.877Z,1014.62
2017-05-05T06:44:48.519Z,1014.63
2017-05-05T06:45:29.174Z,1014.65
2017-05-05T06:46:11.879Z,1014.64
2017-05-05T06:46:52.528Z,1014.68
2017-05-05T06:47:33.288Z,1014.65
2017-05-05T06:48:13.945Z,1014.71
2017-05-05T06:48:54.587Z,1014.71
2017-05-05T06:49:35.242Z,1014.72
2017-05-05T06:50:15.899Z,1014.73
2017-05-05T06:50:56.549Z,1014.73
2017-05-05T06:51:38.229Z,1014.76
2017-05-05T06:52:18.879Z,1014.72
2017-05-05T06:52:59.652Z,1014.72
2017-05-05T06:53:40.296Z,1014.78
2017-05-05T06:54:21.970Z,1014.74
2017-05-05T06:55:02.619Z,1014.72
2017-05-05T06:55:43.373Z,1014.71
2017-05-05T06:56:23.953Z,1014.73
2017-05-05T06:57:04.643Z,1014.71
2017-05-05T06:57:45.334Z,1014.72
2017-05-05T06:58:25.990Z,1014.75
2017-05-05T06:59:06.603Z,1014.73
2017-05-05T06:59:47.241Z,1014.74
2017-05-05T07:00:27.950Z,1014.76
2017-05-05T07:01:09.620Z,1014.74
2017-05-05T07:01:50.192Z,1014.78
2017-05-05T07:02:30.881Z,1014.79
2017-05-05T07:03:12.592Z,1014.79
2017-05-05T07:03:53.300Z,1014.77
2017-05-05T07:04:33.867Z,1014.78
2017-05-05T07:05:14.522Z,1014.82
2017-05-05T07:05:55.221Z,1014.78
2017-05-05T07:06:35.871Z,1014.8
2017-05-05T07:07:16.417Z,1014.81
2017-05-05T07:07:58.173Z,1014.79
2017-05-05T07:08:38.866Z,1014.8
2017-05-05T07:09:19.614Z,1014.84
2017-05-05T07:10:00.242Z,1014.79
2017-05-05T07:10:40.881Z,1014.82
2017-05-05T07:11:21.565Z,1014.77
2017-05-05T07:12:03.254Z,1014.8
2017-05-05T07:12:43.902Z,1014.8
2017-05-05T07:13:24.559Z,1014.82
2017-05-05T07:14:05.307Z,1014.83
2017-05-05T07:14:45.966Z,1014.79
2017-05-05T07:15:26.616Z,1014.82
2017-05-05T07:16:07.183Z,1014.82
2017-05-05T07:16:47.873Z,1014.86
2017-05-05T07:17:28.521Z,1014.86
2017-05-05T07:18:09.226Z,1014.8
2017-05-05T07:18:49.989Z,1014.85
2017-05-05T07:19:30.738Z,1014.81
2017-05-05T07:20:11.395Z,1014.82
2017-05-05T07:20:52.050Z,1014.83
2017-05-05T07:21:32.701Z,1014.83
2017-05-05T07:22:13.353Z,1014.86
2017-05-05T07:22:54.106Z,1014.85
2017-05-05T07:23:34.860Z,1014.83
2017-05-05T07:24:15.514Z,1014.86
2017-05-05T07:24:56.168Z,1014.87
2017-05-05T07:25:36.819Z,1014.87
2017-05-05T07:26:17.391Z,1014.85
2017-05-05T07:26:58.087Z,1014.9
2017-05-05T07:27:38.787Z,1014.88
2017-05-05T07:28:20.449Z,1014.88
2017-05-05T07:29:01.006Z,1014.87
2017-05-05T07:29:41.726Z,1014.88
2017-05-05T07:30:22.421Z,1014.87
2017-05-05T07:31:04.085Z,1014.9
2017-05-05T07:31:44.652Z,1014.89
2017-05-05T07:32:25.344Z,1014.89
2017-05-05T07:33:06.047Z,1014.88
2017-05-05T07:33:46.805Z,1014.87
2017-05-05T07:34:27.381Z,1014.9
2017-05-05T07:35:08.068Z,1014.88
2017-05-05T07:35:48.768Z,1014.92
2017-05-05T07:36:29.515Z,1014.91
2017-05-05T07:37:10.276Z,1014.86
2017-05-05T07:37:50.929Z,1014.93
2017-05-05T07:38:31.684Z,1014.88
2017-05-05T07:39:12.335Z,1014.9
2017-05-05T07:39:52.988Z,1014.92
2017-05-05T07:40:33.744Z,1014.92
2017-05-05T07:41:14.502Z,1014.9
2017-05-05T07:41:56.176Z,1014.93
2017-05-05T07:42:36.924Z,1014.89
2017-05-05T07:43:17.696Z,1014.9
2017-05-05T07:43:58.441Z,1014.91
2017-05-05T07:44:39.097Z,1014.92
2017-05-05T07:45:19.848Z,1014.96
2017-05-05T07:46:00.608Z,1014.95
2017-05-05T07:46:41.363Z,1014.94
2017-05-05T07:47:22.118Z,1014.95
2017-05-05T07:48:02.772Z,1014.94
2017-05-05T07:48:43.424Z,1014.96
2017-05-05T07:49:24.179Z,1014.97
2017-05-05T07:50:04.834Z,1014.97
2017-05-05T07:50:45.588Z,1014.98
2017-05-05T07:51:26.159Z,1014.98
2017-05-05T07:52:06.841Z,1014.98
2017-05-05T07:52:47.550Z,1014.98
2017-05-05T07:53:28.259Z,1015.01
2017-05-05T07:54:08.849Z,1015.04
2017-05-05T07:54:49.527Z,1014.98
2017-05-05T07:55:30.377Z,1015.02
2017-05-05T07:56:11.075Z,1014.98
2017-05-05T07:56:51.625Z,1014.99
2017-05-05T07:57:32.291Z,1015
2017-05-05T07:58:12.929Z,1015
2017-05-05T07:58:53.484Z,1015.03
2017-05-05T07:59:34.147Z,1014.95
2017-05-05T08:00:14.801Z,1014.98
2017-05-05T08:00:55.377Z,1015.01
2017-05-05T08:01:36.089Z,1015.02
2017-05-05T08:02:16.736Z,1015
2017-05-05T08:02:57.393Z,1015.02
2017-05-05T08:03:38.073Z,1015
2017-05-05T08:04:18.705Z,1014.99
2017-05-05T08:04:59.358Z,1015
2017-05-05T08:05:40.026Z,1014.97
2017-05-05T08:06:20.659Z,1014.96
2017-05-05T08:07:01.320Z,1014.97
2017-05-05T08:07:41.905Z,1014.97
2017-05-05T08:08:22.577Z,1014.97
2017-05-05T08:09:03.270Z,1014.98
2017-05-05T08:09:43.943Z,1014.98
2017-05-05T08:10:24.512Z,1014.99
2017-05-05T08:11:05.186Z,1014.98
2017-05-05T08:11:45.886Z,1014.96
2017-05-05T08:12:26.463Z,1014.99
2017-05-05T08:13:07.095Z,1015.01
2017-05-05T08:13:47.743Z,1015
2017-05-05T08:14:28.329Z,1015.05